createdAt,value
2018-12-14T00:01:55.530Z,22.57
2018-12-14T00:04:24.141Z,21.60
2018-12-14T00:06:52.729Z,22.00
2018-12-14T00:09:21.572Z,22.13
2018-12-14T00:11:50.883Z,23.77
2018-12-14T00:14:20.142Z,23.90
2018-12-14T00:16:49.125Z,23.10
2018-12-14T00:19:17.672Z,21.17
2018-12-14T00:21:46.271Z,22.87
2018-12-14T00:24:14.917Z,21.03
2018-12-14T00:26:43.523Z,21.87
2018-12-14T00:29:12.094Z,23.37
2018-12-14T00:31:41.245Z,21.97
2018-12-14T00:34:10.069Z,22.27
2018-12-14T00:36:38.597Z,22.40
2018-12-14T00:39:07.898Z,23.20
2018-12-14T00:41:36.819Z,23.30
2018-12-14T00:44:05.415Z,25.60
2018-12-14T00:46:36.075Z,23.77
2018-12-14T00:49:04.779Z,24.70
2018-12-14T00:51:33.975Z,24.00
2018-12-14T00:54:02.544Z,23.47
2018-12-14T00:56:31.137Z,23.43
2018-12-14T00:58:59.752Z,23.77
2018-12-14T01:01:29.203Z,20.90
2018-12-14T01:03:57.724Z,22.30
2018-12-14T01:06:26.610Z,22.27
2018-12-14T01:08:55.434Z,23.00
2018-12-14T01:11:24.006Z,22.17
2018-12-14T01:13:52.638Z,25.23
2018-12-14T01:16:21.226Z,23.93
2018-12-14T01:18:50.663Z,23.30
2018-12-14T01:21:19.289Z,23.10
2018-12-14T01:23:48.432Z,23.43
2018-12-14T01:26:17.003Z,22.73
2018-12-14T01:28:45.525Z,22.93
2018-12-14T01:31:14.026Z,23.53
2018-12-14T01:33:42.584Z,23.30
2018-12-14T01:36:11.299Z,23.43
2018-12-14T01:38:39.860Z,24.63
2018-12-14T01:41:08.405Z,24.67
2018-12-14T01:43:37.036Z,23.10
2018-12-14T01:46:06.711Z,25.90
2018-12-14T01:48:35.274Z,25.13
2018-12-14T01:51:03.945Z,25.07
2018-12-14T01:53:34.210Z,25.13
2018-12-14T01:56:03.147Z,24.57
2018-12-14T01:58:31.748Z,24.83
2018-12-14T02:01:00.367Z,23.13
2018-12-14T02:03:28.974Z,24.03
2018-12-14T02:05:57.595Z,22.40
2018-12-14T02:08:26.195Z,22.87
2018-12-14T02:10:54.774Z,21.87
2018-12-14T02:13:24.119Z,22.70
2018-12-14T02:15:52.666Z,23.17
2018-12-14T02:18:21.232Z,21.87
2018-12-14T02:20:49.942Z,22.83
2018-12-14T02:23:18.580Z,22.20
2018-12-14T02:25:47.243Z,23.43
2018-12-14T02:28:15.843Z,23.20
2018-12-14T02:30:45.609Z,22.60
2018-12-14T02:33:14.319Z,25.40
2018-12-14T02:35:42.841Z,23.97
2018-12-14T02:38:11.482Z,24.00
2018-12-14T02:40:40.053Z,23.40
2018-12-14T02:43:08.658Z,21.03
2018-12-14T02:45:37.204Z,22.87
2018-12-14T02:48:06.495Z,24.67
2018-12-14T02:50:35.122Z,22.40
2018-12-14T02:53:03.818Z,23.10
2018-12-14T02:55:32.427Z,23.77
2018-12-14T02:58:01.091Z,22.73
2018-12-14T03:00:30.573Z,21.83
2018-12-14T03:02:59.110Z,20.87
2018-12-14T03:05:28.148Z,23.53
2018-12-14T03:07:56.764Z,22.97
2018-12-14T03:10:25.329Z,21.80
2018-12-14T03:12:53.938Z,21.30
2018-12-14T03:15:22.550Z,22.13
2018-12-14T03:17:51.101Z,22.00
2018-12-14T03:20:19.669Z,22.23
2018-12-14T03:22:48.261Z,20.07
2018-12-14T03:25:17.018Z,21.43
2018-12-14T03:27:45.637Z,21.50
2018-12-14T03:30:14.301Z,20.53
2018-12-14T03:32:43.521Z,19.70
2018-12-14T03:35:12.905Z,21.20
2018-12-14T03:37:41.509Z,20.50
2018-12-14T03:40:10.129Z,20.63
2018-12-14T03:42:38.759Z,22.27
2018-12-14T03:45:07.504Z,21.97
2018-12-14T03:47:36.079Z,21.37
2018-12-14T03:50:05.717Z,22.10
2018-12-14T03:52:34.422Z,22.40
2018-12-14T03:55:03.577Z,22.23
2018-12-14T03:57:32.197Z,22.07
2018-12-14T04:00:00.813Z,23.60
2018-12-14T04:02:29.389Z,23.57
2018-12-14T04:04:57.961Z,22.60
2018-12-14T04:07:26.509Z,21.17
2018-12-14T04:09:55.049Z,24.37
2018-12-14T04:12:23.604Z,21.43
2018-12-14T04:14:53.124Z,21.60
2018-12-14T04:17:22.109Z,20.13
2018-12-14T04:19:50.588Z,22.37
2018-12-14T04:22:19.159Z,20.80
2018-12-14T04:24:47.749Z,20.07
2018-12-14T04:27:16.269Z,21.77
2018-12-14T04:29:44.880Z,21.00
2018-12-14T04:32:13.592Z,19.60
2018-12-14T04:34:42.205Z,21.77
2018-12-14T04:37:10.796Z,21.83
2018-12-14T04:39:39.371Z,20.63
2018-12-14T04:42:07.917Z,20.80
2018-12-14T04:44:36.697Z,18.40
2018-12-14T04:47:05.719Z,20.33
2018-12-14T04:49:34.538Z,20.83
2018-12-14T04:52:07.381Z,19.20
2018-12-14T04:54:36.097Z,21.20
2018-12-14T04:57:05.008Z,21.10
2018-12-14T04:59:33.611Z,21.57
2018-12-14T05:02:02.227Z,20.73
2018-12-14T05:04:30.846Z,21.00
2018-12-14T05:06:59.456Z,22.67
2018-12-14T05:09:28.051Z,21.17
2018-12-14T05:11:56.647Z,21.70
2018-12-14T05:14:26.317Z,22.03
2018-12-14T05:16:54.880Z,22.53
2018-12-14T05:19:23.594Z,23.73
2018-12-14T05:21:52.495Z,23.77
2018-12-14T05:24:21.309Z,27.13
2018-12-14T05:26:50.199Z,25.63
2018-12-14T05:29:18.732Z,26.90
2018-12-14T05:31:47.367Z,26.93
2018-12-14T05:34:16.129Z,30.90
2018-12-14T05:36:44.766Z,31.60
2018-12-14T05:39:13.353Z,28.27
2018-12-14T05:41:41.996Z,30.93
2018-12-14T05:44:10.557Z,35.37
2018-12-14T05:46:39.136Z,34.27
2018-12-14T05:49:07.910Z,33.53
2018-12-14T05:51:36.509Z,35.43
2018-12-14T05:54:05.062Z,37.20
2018-12-14T05:56:33.654Z,39.37
2018-12-14T05:59:02.693Z,40.80
2018-12-14T06:01:31.269Z,37.67
2018-12-14T06:04:00.790Z,38.73
2018-12-14T06:06:29.354Z,36.47
2018-12-14T06:08:58.137Z,38.83
2018-12-14T06:11:26.843Z,35.33
2018-12-14T06:13:55.419Z,35.17
2018-12-14T06:16:24.074Z,38.70
2018-12-14T06:18:53.508Z,41.63
2018-12-14T06:21:22.012Z,38.03
2018-12-14T06:23:50.586Z,39.40
2018-12-14T06:26:19.166Z,37.03
2018-12-14T06:28:47.721Z,33.50
2018-12-14T06:31:16.959Z,40.87
2018-12-14T06:33:45.493Z,36.43
2018-12-14T06:36:14.108Z,33.90
2018-12-14T06:38:42.670Z,34.10
2018-12-14T06:41:11.944Z,33.50
2018-12-14T06:43:40.618Z,33.97
2018-12-14T06:46:09.251Z,32.20
2018-12-14T06:48:38.390Z,31.70
2018-12-14T06:51:07.366Z,32.33
2018-12-14T06:53:36.820Z,31.70
2018-12-14T06:56:05.557Z,33.87
2018-12-14T06:58:34.494Z,33.47
2018-12-14T07:01:03.666Z,35.10
2018-12-14T07:03:32.273Z,33.20
2018-12-14T07:06:00.848Z,34.90
2018-12-14T07:08:31.308Z,32.27
2018-12-14T07:11:00.060Z,33.90
2018-12-14T07:13:29.544Z,31.20
2018-12-14T07:15:58.089Z,29.97
2018-12-14T07:18:26.558Z,32.27
2018-12-14T07:20:55.622Z,34.23
2018-12-14T07:23:24.155Z,33.33
2018-12-14T07:25:52.647Z,31.90
2018-12-14T07:28:21.346Z,32.17
2018-12-14T07:30:49.914Z,30.63
2018-12-14T07:33:18.600Z,31.47
2018-12-14T07:35:47.163Z,28.87
2018-12-14T07:38:15.806Z,28.90
2018-12-14T07:40:44.932Z,32.10
2018-12-14T07:43:13.512Z,27.67
2018-12-14T07:45:42.624Z,29.57
2018-12-14T07:48:11.134Z,28.70
2018-12-14T07:50:39.872Z,24.73
2018-12-14T07:53:09.256Z,25.83
2018-12-14T07:55:38.018Z,24.97
2018-12-14T07:58:06.588Z,25.23
2018-12-14T08:00:35.712Z,24.30
2018-12-14T08:03:04.345Z,25.50
2018-12-14T08:05:32.908Z,25.37
2018-12-14T08:08:02.316Z,25.40
2018-12-14T08:10:31.060Z,25.73
2018-12-14T08:12:59.671Z,25.80
2018-12-14T08:15:28.541Z,25.80
2018-12-14T08:17:57.184Z,27.37
2018-12-14T08:20:25.937Z,23.73
2018-12-14T08:22:54.796Z,25.77
2018-12-14T08:25:24.346Z,27.83
2018-12-14T08:27:53.032Z,30.57
2018-12-14T08:30:22.109Z,29.07
2018-12-14T08:32:50.790Z,24.00
2018-12-14T08:35:19.471Z,25.77
2018-12-14T08:37:48.274Z,27.60
2018-12-14T08:40:16.841Z,23.47
2018-12-14T08:42:45.366Z,27.40
2018-12-14T08:45:14.104Z,27.57
2018-12-14T08:47:42.740Z,28.23
2018-12-14T08:50:11.346Z,29.73
2018-12-14T08:52:40.024Z,28.03
2018-12-14T08:55:08.649Z,30.23
2018-12-14T08:57:37.218Z,30.67
2018-12-14T09:00:06.200Z,30.40
2018-12-14T09:02:34.861Z,31.97
2018-12-14T09:05:03.701Z,34.90
2018-12-14T09:07:32.416Z,32.10
2018-12-14T09:10:01.442Z,33.27
2018-12-14T09:12:30.166Z,33.07
2018-12-14T09:14:58.766Z,31.30
2018-12-14T09:17:27.425Z,33.97
2018-12-14T09:19:56.175Z,31.47
2018-12-14T09:22:24.983Z,36.20
2018-12-14T09:24:54.119Z,33.80
2018-12-14T09:27:22.702Z,34.03
2018-12-14T09:29:51.875Z,33.97
2018-12-14T09:32:20.896Z,36.13
2018-12-14T09:34:49.731Z,35.70
2018-12-14T09:37:19.126Z,40.33
2018-12-14T09:39:48.753Z,33.47
2018-12-14T09:42:17.350Z,36.30
2018-12-14T09:44:45.994Z,34.63
2018-12-14T09:47:14.725Z,32.90
2018-12-14T09:49:43.446Z,36.73
2018-12-14T09:52:13.744Z,37.50
2018-12-14T09:54:42.520Z,36.53
2018-12-14T09:57:11.370Z,34.40
2018-12-14T09:59:40.002Z,36.13
2018-12-14T10:02:08.897Z,37.20
2018-12-14T10:04:38.417Z,34.33
2018-12-14T10:07:07.945Z,37.93
2018-12-14T10:09:37.377Z,36.60
2018-12-14T10:12:06.008Z,37.97
2018-12-14T10:14:34.694Z,39.87
2018-12-14T10:17:03.297Z,37.80
2018-12-14T10:19:32.256Z,41.30
2018-12-14T10:22:01.050Z,37.67
2018-12-14T10:24:29.647Z,40.87
2018-12-14T10:26:58.470Z,42.30
2018-12-14T10:29:27.140Z,39.77
2018-12-14T10:31:58.953Z,40.93
2018-12-14T10:34:28.495Z,39.97
2018-12-14T10:36:57.127Z,42.93
2018-12-14T10:39:25.751Z,36.47
2018-12-14T10:41:54.419Z,40.77
2018-12-14T10:44:23.771Z,39.60
2018-12-14T10:46:53.154Z,38.70
2018-12-14T10:49:21.790Z,40.63
2018-12-14T10:51:50.382Z,40.50
2018-12-14T10:54:20.271Z,43.07
2018-12-14T10:56:48.882Z,41.87
2018-12-14T10:59:17.574Z,43.60
2018-12-14T11:01:54.795Z,39.17
2018-12-14T11:04:23.959Z,42.80
2018-12-14T11:06:54.448Z,44.13
2018-12-14T11:09:24.013Z,41.93
2018-12-14T11:11:52.941Z,42.40
2018-12-14T11:14:21.674Z,42.47
2018-12-14T11:16:50.410Z,44.57
2018-12-14T11:19:20.446Z,40.47
2018-12-14T11:21:51.854Z,40.70
2018-12-14T11:24:20.939Z,42.77
2018-12-14T11:26:49.721Z,40.87
2018-12-14T11:29:19.245Z,41.07
2018-12-14T11:31:48.206Z,43.37
2018-12-14T11:34:16.724Z,38.83
2018-12-14T11:36:45.440Z,41.00
2018-12-14T11:39:14.616Z,43.40
2018-12-14T11:41:43.161Z,41.17
2018-12-14T11:44:11.835Z,39.90
2018-12-14T11:46:40.459Z,40.97
2018-12-14T11:49:09.172Z,41.07
2018-12-14T11:51:38.265Z,41.20
2018-12-14T11:54:09.396Z,37.83
2018-12-14T11:56:38.293Z,39.60
2018-12-14T11:59:07.031Z,39.00
2018-12-14T12:01:36.254Z,39.87
2018-12-14T12:04:05.000Z,38.93
2018-12-14T12:06:34.188Z,40.13
2018-12-14T12:09:02.916Z,38.10
2018-12-14T12:11:31.599Z,37.33
2018-12-14T12:14:00.171Z,36.43
2018-12-14T12:16:29.875Z,38.43
2018-12-14T12:18:58.524Z,36.33
2018-12-14T12:21:28.007Z,77.37
2018-12-14T12:23:57.158Z,43.17
2018-12-14T12:26:26.037Z,37.60
2018-12-14T12:28:54.617Z,38.03
2018-12-14T12:31:23.397Z,38.20
2018-12-14T12:33:52.400Z,41.23
2018-12-14T12:36:21.036Z,37.30
2018-12-14T12:38:49.717Z,38.97
2018-12-14T12:41:18.405Z,37.53
2018-12-14T12:43:47.147Z,33.73
2018-12-14T12:46:15.816Z,34.37
2018-12-14T12:48:44.986Z,35.40
2018-12-14T12:51:14.118Z,34.33
2018-12-14T12:53:42.831Z,36.00
2018-12-14T12:56:12.396Z,34.03
2018-12-14T12:58:40.954Z,34.03
2018-12-14T13:01:09.906Z,38.17
2018-12-14T13:03:39.011Z,33.33
2018-12-14T13:06:08.216Z,32.37
2018-12-14T13:08:37.122Z,34.07
2018-12-14T13:11:05.747Z,32.93
2018-12-14T13:13:34.888Z,32.33
2018-12-14T13:16:03.648Z,31.13
2018-12-14T13:18:32.340Z,32.37
2018-12-14T13:21:01.042Z,32.60
2018-12-14T13:23:29.907Z,31.23
2018-12-14T13:25:58.602Z,31.63
2018-12-14T13:28:27.562Z,31.40
2018-12-14T13:30:57.355Z,30.73
2018-12-14T13:33:28.009Z,29.00
2018-12-14T13:35:56.824Z,30.93
2018-12-14T13:38:25.968Z,30.33
2018-12-14T13:40:54.890Z,29.07
2018-12-14T13:43:24.033Z,27.43
2018-12-14T13:45:53.997Z,28.17
2018-12-14T13:48:23.381Z,32.50
2018-12-14T13:50:52.155Z,29.43
2018-12-14T13:53:20.952Z,28.47
2018-12-14T13:55:49.856Z,27.57
2018-12-14T13:58:18.792Z,27.97
2018-12-14T14:00:48.052Z,26.97
2018-12-14T14:03:16.731Z,25.80
2018-12-14T14:05:48.500Z,25.63
2018-12-14T14:08:17.324Z,30.43
2018-12-14T14:10:46.167Z,27.67
2018-12-14T14:13:15.235Z,26.57
2018-12-14T14:15:50.564Z,26.40
2018-12-14T14:18:15.673Z,25.43
2018-12-14T14:20:44.889Z,27.07
2018-12-14T14:23:13.829Z,26.30
2018-12-14T14:25:42.820Z,26.53
2018-12-14T14:28:11.763Z,27.57
2018-12-14T14:30:40.467Z,25.43
2018-12-14T14:33:09.141Z,25.57
2018-12-14T14:35:37.982Z,26.37
2018-12-14T14:38:07.104Z,24.63
2018-12-14T14:40:37.679Z,26.73
2018-12-14T14:43:07.585Z,28.33
2018-12-14T14:45:37.117Z,27.63
2018-12-14T14:48:06.146Z,27.80
2018-12-14T14:50:35.153Z,28.90
2018-12-14T14:53:03.893Z,26.70
2018-12-14T14:55:32.573Z,27.60
2018-12-14T14:58:01.253Z,26.30
2018-12-14T15:00:33.031Z,26.67
2018-12-14T15:03:01.634Z,26.90
2018-12-14T15:05:31.198Z,32.40
2018-12-14T15:07:59.930Z,26.10
2018-12-14T15:10:29.521Z,28.47
2018-12-14T15:12:58.352Z,26.50
2018-12-14T15:15:27.789Z,26.93
2018-12-14T15:17:57.054Z,26.50
2018-12-14T15:20:26.772Z,27.57
2018-12-14T15:22:56.339Z,27.67
2018-12-14T15:25:25.739Z,26.67
2018-12-14T15:27:54.792Z,25.20
2018-12-14T15:30:23.721Z,30.47
2018-12-14T15:32:53.462Z,27.97
2018-12-14T15:35:22.015Z,24.97
2018-12-14T15:37:50.780Z,26.13
2018-12-14T15:40:19.400Z,27.10
2018-12-14T15:42:47.995Z,26.87
2018-12-14T15:45:17.487Z,28.07
2018-12-14T15:47:47.833Z,26.57
2018-12-14T15:50:16.460Z,26.43
2018-12-14T15:52:45.967Z,27.03
2018-12-14T15:55:14.847Z,25.17
2018-12-14T15:57:44.344Z,26.30
2018-12-14T16:00:14.159Z,28.00
2018-12-14T16:02:43.093Z,26.60
2018-12-14T16:05:12.065Z,26.00
2018-12-14T16:07:41.312Z,26.40
2018-12-14T16:10:10.626Z,28.77
2018-12-14T16:12:39.349Z,28.47
2018-12-14T16:15:09.816Z,26.10
2018-12-14T16:17:39.188Z,27.57
2018-12-14T16:20:09.786Z,26.87
2018-12-14T16:22:38.408Z,28.53
2018-12-14T16:25:08.093Z,27.50
2018-12-14T16:27:37.982Z,25.70
2018-12-14T16:30:09.862Z,27.30
2018-12-14T16:32:40.640Z,25.53
2018-12-14T16:35:09.730Z,26.63
2018-12-14T16:37:38.438Z,25.77
2018-12-14T16:40:08.169Z,26.97
2018-12-14T16:42:36.925Z,36.57
2018-12-14T16:45:06.657Z,32.90
2018-12-14T16:47:36.959Z,26.13
2018-12-14T16:50:06.982Z,27.27
2018-12-14T16:52:35.654Z,25.80
2018-12-14T16:55:05.902Z,23.17
2018-12-14T16:57:34.784Z,26.80
2018-12-14T17:00:03.666Z,24.00
2018-12-14T17:02:32.408Z,23.30
2018-12-14T17:05:01.156Z,25.10
2018-12-14T17:07:32.002Z,23.93
2018-12-14T17:10:00.920Z,23.67
2018-12-14T17:12:29.598Z,25.03
2018-12-14T17:14:59.177Z,26.57
2018-12-14T17:17:27.876Z,24.23
2018-12-14T17:19:57.003Z,26.77
2018-12-14T17:22:27.022Z,24.00
2018-12-14T17:24:58.586Z,22.90
2018-12-14T17:27:27.846Z,25.30
2018-12-14T17:29:57.413Z,21.63
2018-12-14T17:32:27.084Z,22.30
2018-12-14T17:34:56.131Z,23.03
2018-12-14T17:37:25.032Z,26.30
2018-12-14T17:39:53.647Z,25.47
2018-12-14T17:42:22.322Z,24.83
2018-12-14T17:44:51.310Z,24.07
2018-12-14T17:47:20.054Z,23.37
2018-12-14T17:49:49.415Z,22.53
2018-12-14T17:52:21.346Z,22.03
2018-12-14T17:54:49.997Z,21.93
2018-12-14T17:57:24.447Z,22.43
2018-12-14T17:59:53.036Z,23.90
2018-12-14T18:02:21.707Z,21.63
2018-12-14T18:04:50.900Z,23.07
2018-12-14T18:07:19.834Z,21.97
2018-12-14T18:09:53.977Z,23.00
2018-12-14T18:12:24.619Z,22.73
2018-12-14T18:14:58.534Z,22.00
2018-12-14T18:17:32.729Z,23.23
2018-12-14T18:20:02.012Z,21.40
2018-12-14T18:22:33.275Z,22.73
2018-12-14T18:25:02.015Z,26.93
2018-12-14T18:27:32.582Z,24.67
2018-12-14T18:30:02.619Z,21.63
2018-12-14T18:32:32.391Z,24.00
2018-12-14T18:35:01.134Z,21.43
2018-12-14T18:37:30.304Z,23.37
2018-12-14T18:39:59.546Z,21.90
2018-12-14T18:42:30.548Z,23.17
2018-12-14T18:45:00.860Z,23.03
2018-12-14T18:47:41.472Z,23.20
2018-12-14T18:50:10.034Z,23.47
2018-12-14T18:52:38.796Z,23.13
2018-12-14T18:55:07.827Z,23.33
2018-12-14T18:57:38.242Z,26.23
2018-12-14T19:00:09.244Z,24.40
2018-12-14T19:02:38.198Z,21.53
2018-12-14T19:05:08.279Z,22.07
2018-12-14T19:07:37.201Z,22.60
2018-12-14T19:10:06.667Z,23.43
2018-12-14T19:12:36.047Z,24.33
2018-12-14T19:15:05.062Z,23.17
2018-12-14T19:17:33.629Z,23.87
2018-12-14T19:20:02.818Z,24.23
2018-12-14T19:22:31.358Z,23.60
2018-12-14T19:25:00.096Z,23.57
2018-12-14T19:27:28.710Z,23.70
2018-12-14T19:29:57.306Z,23.93
2018-12-14T19:32:25.979Z,25.87
2018-12-14T19:34:54.719Z,26.53
2018-12-14T19:37:23.402Z,25.27
2018-12-14T19:39:54.250Z,24.40
2018-12-14T19:42:35.402Z,23.90
2018-12-14T19:45:05.164Z,24.47
2018-12-14T19:47:34.016Z,24.87
2018-12-14T19:50:03.351Z,25.90
2018-12-14T19:52:32.316Z,25.13
2018-12-14T19:55:01.274Z,23.47
2018-12-14T19:57:30.227Z,23.60
2018-12-14T19:59:58.997Z,22.67
2018-12-14T20:02:28.197Z,25.83
2018-12-14T20:04:59.079Z,24.57
2018-12-14T20:07:32.297Z,25.57
2018-12-14T20:10:02.158Z,25.70
2018-12-14T20:12:31.063Z,25.87
2018-12-14T20:15:00.831Z,27.20
2018-12-14T20:17:31.776Z,25.90
2018-12-14T20:20:04.003Z,27.67
2018-12-14T20:22:32.790Z,24.87
2018-12-14T20:25:01.728Z,24.47
2018-12-14T20:27:30.528Z,22.73
2018-12-14T20:29:59.193Z,24.57
2018-12-14T20:32:27.811Z,22.70
2018-12-14T20:34:57.190Z,23.57
2018-12-14T20:37:25.979Z,26.77
2018-12-14T20:39:54.711Z,26.30
2018-12-14T20:42:23.406Z,25.83
2018-12-14T20:44:53.346Z,26.47
2018-12-14T20:47:23.580Z,26.13
2018-12-14T20:49:53.089Z,27.73
2018-12-14T20:52:22.561Z,28.30
2018-12-14T20:54:51.364Z,26.50
2018-12-14T20:57:20.280Z,28.33
2018-12-14T20:59:49.874Z,29.73
2018-12-14T21:02:19.526Z,28.83
2018-12-14T21:04:48.343Z,29.07
2018-12-14T21:07:16.999Z,29.27
2018-12-14T21:09:46.014Z,29.60
2018-12-14T21:12:15.012Z,30.73
2018-12-14T21:14:43.812Z,29.33
2018-12-14T21:17:12.943Z,29.27
2018-12-14T21:19:42.087Z,32.67
2018-12-14T21:22:13.555Z,31.90
2018-12-14T21:24:42.432Z,32.30
2018-12-14T21:27:11.733Z,33.13
2018-12-14T21:29:40.835Z,32.13
2018-12-14T21:32:10.001Z,31.37
2018-12-14T21:34:39.057Z,28.40
2018-12-14T21:37:08.207Z,31.17
2018-12-14T21:39:37.565Z,32.60
2018-12-14T21:42:06.883Z,32.57
2018-12-14T21:44:36.009Z,33.40
2018-12-14T21:47:05.159Z,31.00
2018-12-14T21:49:34.541Z,33.20
2018-12-14T21:52:03.535Z,33.23
2018-12-14T21:54:32.718Z,33.13
2018-12-14T21:57:01.500Z,29.83
2018-12-14T21:59:31.631Z,35.30
2018-12-14T22:02:00.479Z,30.37
2018-12-14T22:04:29.319Z,31.60
2018-12-14T22:06:58.451Z,31.30
2018-12-14T22:09:27.102Z,31.43
2018-12-14T22:14:52.088Z,29.07
2018-12-14T22:20:14.427Z,32.20
2018-12-14T22:22:45.595Z,27.43
2018-12-14T22:25:14.532Z,29.03
2018-12-14T22:30:46.343Z,27.47
2018-12-14T22:33:14.954Z,26.93
2018-12-14T22:35:43.733Z,29.27
2018-12-14T22:38:15.393Z,30.63
2018-12-14T22:40:43.991Z,29.80
2018-12-14T22:43:12.570Z,29.57
2018-12-14T22:45:41.227Z,27.73
2018-12-14T22:48:09.843Z,28.77
2018-12-14T22:50:38.396Z,28.40
2018-12-14T22:53:07.078Z,28.03
2018-12-14T22:55:36.075Z,28.07
2018-12-14T22:58:04.842Z,29.57
2018-12-14T23:00:35.693Z,28.43
2018-12-14T23:03:05.263Z,27.53
2018-12-14T23:05:33.835Z,27.63
2018-12-14T23:08:02.492Z,28.47
2018-12-14T23:10:32.032Z,26.77
2018-12-14T23:13:00.610Z,29.27
2018-12-14T23:15:29.143Z,28.43
2018-12-14T23:17:58.439Z,29.67
2018-12-14T23:20:27.255Z,28.53
2018-12-14T23:22:55.914Z,26.83
2018-12-14T23:25:24.532Z,27.93
2018-12-14T23:27:53.157Z,26.70
2018-12-14T23:30:22.189Z,27.53
2018-12-14T23:32:51.824Z,28.17
2018-12-14T23:35:20.711Z,27.57
2018-12-14T23:37:49.288Z,27.10
2018-12-14T23:40:17.936Z,28.73
2018-12-14T23:42:46.494Z,27.27
2018-12-14T23:45:15.172Z,30.70
2018-12-14T23:47:43.837Z,29.27
2018-12-14T23:50:12.524Z,31.13
2018-12-14T23:52:41.180Z,29.00
2018-12-14T23:55:09.760Z,28.10
2018-12-14T23:57:38.707Z,28.33
